Time;durP1;ratioP1;P1;durP2;ratioP2;P2;SDS_P1;SDS_P2;PMS_P1;PMS_P2;Temp;Humidity;BMP_temperature;BMP_pressure;BME280_temperature;BME280_humidity;BME280_pressure;Samples;Min_cycle;Max_cycle;Signal;HPM_P1;HPM_P2
2022/06/19 00:02:02;;;;;;;25.25;3.90;;;14.50;99.90;;;;;;5034176;28;20111;-74
2022/06/19 00:04:28;;;;;;;20.05;2.63;;;14.50;99.90;;;;;;5035449;28;20058;-74
2022/06/19 00:06:56;;;;;;;20.73;2.53;;;14.50;99.90;;;;;;5033168;28;20378;-74
2022/06/19 00:09:23;;;;;;;18.25;2.55;;;14.40;99.90;;;;;;5035218;28;20069;-74
2022/06/19 00:11:49;;;;;;;22.05;3.03;;;14.40;99.90;;;;;;5035162;28;20053;-74
2022/06/19 00:14:16;;;;;;;16.58;2.45;;;14.50;99.90;;;;;;5035044;28;20037;-74
2022/06/19 00:16:42;;;;;;;13.48;2.53;;;14.50;99.90;;;;;;5035083;28;20041;-74
2022/06/19 00:19:07;;;;;;;27.55;3.78;;;14.50;99.90;;;;;;5034978;28;20064;-74
2022/06/19 00:21:34;;;;;;;19.33;2.90;;;14.50;99.90;;;;;;5033602;28;20052;-74
2022/06/19 00:24:00;;;;;;;10.93;2.88;;;14.50;99.90;;;;;;5034835;28;20485;-74
2022/06/19 00:26:25;;;;;;;15.45;3.42;;;14.60;99.90;;;;;;5034777;28;20044;-74
2022/06/19 00:28:51;;;;;;;18.00;3.42;;;14.60;99.90;;;;;;5033536;28;20042;-74
2022/06/19 00:31:17;;;;;;;22.77;3.42;;;14.70;99.90;;;;;;5034781;28;20042;-74
2022/06/19 00:33:43;;;;;;;22.80;3.17;;;14.70;99.90;;;;;;5034746;28;20049;-74
2022/06/19 00:36:10;;;;;;;15.32;2.83;;;14.80;99.90;;;;;;5034718;28;20053;-74
2022/06/19 00:38:35;;;;;;;15.32;2.58;;;14.80;99.90;;;;;;5034651;28;20116;-74
2022/06/19 00:41:02;;;;;;;20.27;2.50;;;14.90;99.90;;;;;;5033300;28;20192;-74
2022/06/19 00:43:28;;;;;;;22.15;3.35;;;14.90;99.90;;;;;;5041266;28;20597;-74
2022/06/19 00:46:02;;;;;;;11.05;2.58;;;15.00;99.90;;;;;;5054315;28;20045;-74
2022/06/19 00:48:36;;;;;;;18.30;2.88;;;15.00;99.90;;;;;;5054253;28;20502;-74
2022/06/19 00:51:05;;;;;;;24.70;3.53;;;15.00;99.90;;;;;;5054334;28;20116;-74
2022/06/19 00:53:42;;;;;;;16.02;2.92;;;15.00;99.90;;;;;;5036865;28;20049;-74
2022/06/19 00:56:14;;;;;;;13.32;3.53;;;15.00;99.90;;;;;;5054272;28;20087;-74
2022/06/19 00:58:41;;;;;;;12.70;2.67;;;15.00;99.90;;;;;;5036354;28;20045;-74
2022/06/19 01:01:13;;;;;;;23.67;4.03;;;15.00;99.90;;;;;;5054154;28;20033;-74
2022/06/19 01:03:59;;;;;;;22.02;3.65;;;15.10;99.90;;;;;;5054184;28;20131;-74
2022/06/19 01:06:27;;;;;;;14.13;3.00;;;15.10;99.90;;;;;;5053987;28;20045;-74
2022/06/19 01:08:53;;;;;;;16.48;2.47;;;15.10;99.90;;;;;;5036044;28;20041;-74
2022/06/19 01:11:22;;;;;;;21.67;3.75;;;15.10;99.90;;;;;;5053837;28;20053;-74
2022/06/19 01:13:48;;;;;;;26.92;3.92;;;15.10;99.90;;;;;;5053783;28;20488;-74
2022/06/19 01:16:14;;;;;;;24.92;4.53;;;15.00;99.90;;;;;;5053914;28;20120;-74
2022/06/19 01:18:40;;;;;;;15.27;2.90;;;15.10;99.90;;;;;;5052955;28;20081;-74
2022/06/19 01:21:06;;;;;;;21.70;3.17;;;15.10;99.90;;;;;;5053838;28;20045;-74
2022/06/19 01:23:40;;;;;;;16.70;2.42;;;15.10;99.90;;;;;;5035734;28;20056;-74
2022/06/19 01:26:06;;;;;;;25.08;3.35;;;15.00;99.90;;;;;;5036001;28;20128;-74
2022/06/19 01:28:45;;;;;;;17.80;2.88;;;15.10;99.90;;;;;;5036077;28;20156;-74
2022/06/19 01:31:24;;;;;;;20.92;4.57;;;15.00;99.90;;;;;;5036062;28;20053;-74
2022/06/19 01:33:59;;;;;;;20.40;3.83;;;15.00;99.90;;;;;;5053443;28;20452;-74
2022/06/19 01:36:28;;;;;;;21.17;4.82;;;14.90;99.90;;;;;;5036023;28;20049;-74
2022/06/19 01:38:55;;;;;;;26.55;3.25;;;14.90;99.90;;;;;;5035682;28;20041;-74
2022/06/19 01:41:32;;;;;;;21.90;3.38;;;14.90;99.90;;;;;;5053606;28;20080;-74
2022/06/19 01:43:58;;;;;;;24.48;3.05;;;14.90;99.90;;;;;;5035514;28;20053;-74
2022/06/19 01:46:27;;;;;;;20.83;3.42;;;14.80;99.90;;;;;;5053749;28;20056;-74
2022/06/19 01:48:53;;;;;;;24.30;3.42;;;14.80;99.90;;;;;;5053513;28;20048;-74
2022/06/19 01:51:19;;;;;;;34.05;4.07;;;14.80;99.90;;;;;;5035529;28;20147;-74
2022/06/19 01:53:51;;;;;;;18.48;3.17;;;14.80;99.90;;;;;;5053501;28;20124;-74
2022/06/19 01:56:17;;;;;;;18.52;3.40;;;14.80;99.90;;;;;;5053466;28;20044;-74
2022/06/19 01:58:47;;;;;;;22.58;3.22;;;14.80;99.90;;;;;;5053371;28;20130;-74
2022/06/19 02:01:13;;;;;;;23.77;3.15;;;14.70;99.90;;;;;;5053667;28;20049;-74
2022/06/19 02:03:52;;;;;;;20.00;2.65;;;14.80;99.90;;;;;;5035660;28;20361;-74
2022/06/19 02:06:20;;;;;;;23.52;4.30;;;14.80;99.90;;;;;;5053228;28;20392;-74
2022/06/19 02:08:48;;;;;;;17.27;3.53;;;14.80;99.90;;;;;;5053284;28;20056;-74
2022/06/19 02:11:15;;;;;;;29.05;4.13;;;14.70;99.90;;;;;;5035319;28;20079;-74
2022/06/19 02:13:42;;;;;;;24.42;3.60;;;14.70;99.90;;;;;;5035302;28;20155;-74
2022/06/19 02:16:13;;;;;;;21.65;3.40;;;14.50;99.90;;;;;;5053296;28;20119;-74
2022/06/19 02:18:41;;;;;;;24.30;4.55;;;14.60;99.90;;;;;;5035622;28;20121;-74
2022/06/19 02:21:11;;;;;;;20.95;4.50;;;14.50;99.90;;;;;;5053241;28;20052;-74
2022/06/19 02:23:38;;;;;;;17.10;2.72;;;14.50;99.90;;;;;;5053207;28;20067;-74
2022/06/19 02:26:09;;;;;;;23.40;3.13;;;14.60;99.90;;;;;;5035124;28;20037;-74
2022/06/19 02:28:37;;;;;;;19.25;2.58;;;14.60;99.90;;;;;;5053234;28;20045;-73
2022/06/19 02:31:06;;;;;;;28.85;3.58;;;14.50;99.90;;;;;;5055705;28;20112;-74
2022/06/19 02:33:36;;;;;;;22.63;2.90;;;14.60;99.90;;;;;;5056959;28;20037;-74
2022/06/19 02:36:21;;;;;;;22.52;3.38;;;14.60;99.90;;;;;;5056841;28;20079;-74
2022/06/19 02:38:46;;;;;;;22.85;3.03;;;14.70;99.90;;;;;;5056940;28;20123;-74
2022/06/19 02:41:24;;;;;;;25.15;3.72;;;14.60;99.90;;;;;;5056806;28;20130;-73
2022/06/19 02:43:49;;;;;;;21.58;2.67;;;14.60;99.90;;;;;;5035232;28;20107;-74
2022/06/19 02:46:15;;;;;;;25.48;2.72;;;14.70;99.90;;;;;;5036669;28;20132;-74
2022/06/19 02:48:41;;;;;;;16.50;2.33;;;14.70;99.90;;;;;;5035790;28;20050;-74
2022/06/19 02:51:06;;;;;;;19.65;3.22;;;14.60;99.90;;;;;;5036732;28;20469;-74
2022/06/19 02:53:32;;;;;;;26.30;2.70;;;14.50;99.90;;;;;;5036533;28;20099;-74
2022/06/19 02:56:00;;;;;;;27.98;3.08;;;14.30;99.90;;;;;;5035492;28;20076;-74
2022/06/19 02:58:26;;;;;;;24.40;4.38;;;14.30;99.90;;;;;;5036559;28;20041;-74
2022/06/19 03:00:52;;;;;;;23.35;3.40;;;14.20;99.90;;;;;;5036563;28;20041;-74
2022/06/19 03:03:36;;;;;;;17.88;3.08;;;14.20;99.90;;;;;;5035501;28;20044;-74
2022/06/19 03:06:04;;;;;;;22.13;3.42;;;14.20;99.90;;;;;;5035038;28;20059;-73
2022/06/19 03:08:29;;;;;;;21.92;2.47;;;14.10;99.90;;;;;;5036258;28;20110;-73
2022/06/19 03:10:55;;;;;;;21.13;3.28;;;14.00;99.90;;;;;;5036311;28;20473;-73
2022/06/19 03:13:21;;;;;;;23.35;4.57;;;13.80;99.90;;;;;;5036194;28;20044;-73
2022/06/19 03:15:57;;;;;;;18.35;2.95;;;13.80;99.90;;;;;;5036065;28;20041;-73
2022/06/19 03:18:23;;;;;;;23.55;2.85;;;13.70;99.90;;;;;;5034854;28;20045;-73
2022/06/19 03:20:49;;;;;;;26.45;4.90;;;13.50;99.90;;;;;;5035974;28;20107;-73
2022/06/19 03:23:14;;;;;;;25.95;2.78;;;13.50;99.90;;;;;;5036127;28;20099;-74
2022/06/19 03:25:40;;;;;;;27.77;4.00;;;13.30;99.90;;;;;;5036067;28;20389;-73
2022/06/19 03:28:05;;;;;;;27.95;3.42;;;13.30;99.90;;;;;;5035830;28;20087;-73
2022/06/19 03:30:31;;;;;;;30.33;4.28;;;13.30;99.90;;;;;;5035716;28;20393;-74
2022/06/19 03:32:56;;;;;;;32.15;5.60;;;13.40;99.90;;;;;;5036137;28;20041;-73
2022/06/19 03:35:23;;;;;;;26.20;4.60;;;13.30;99.90;;;;;;5035452;28;20069;-73
2022/06/19 03:37:48;;;;;;;25.63;4.03;;;13.50;99.90;;;;;;5034767;28;20049;-73
2022/06/19 03:40:14;;;;;;;27.05;3.47;;;13.50;99.90;;;;;;5035671;28;20056;-73
2022/06/19 03:42:40;;;;;;;21.48;3.67;;;13.50;99.90;;;;;;5033708;28;20504;-74
2022/06/19 03:45:06;;;;;;;29.30;4.35;;;13.60;99.90;;;;;;5055632;28;20052;-73
2022/06/19 03:47:32;;;;;;;26.88;4.78;;;13.50;99.90;;;;;;5055535;28;20067;-74
2022/06/19 03:49:58;;;;;;;35.83;5.10;;;13.30;99.90;;;;;;5037574;28;20545;-73
2022/06/19 03:52:23;;;;;;;28.90;4.15;;;13.30;99.90;;;;;;5055399;28;20041;-73
2022/06/19 03:54:49;;;;;;;18.58;4.18;;;13.30;99.90;;;;;;5037372;28;20056;-73
2022/06/19 03:57:15;;;;;;;29.98;4.03;;;13.10;99.90;;;;;;5037323;28;20477;-73
2022/06/19 03:59:41;;;;;;;25.60;4.22;;;13.00;99.90;;;;;;5054854;28;20132;-73
2022/06/19 04:02:08;;;;;;;22.90;3.20;;;13.00;99.90;;;;;;5054974;28;20041;-73
2022/06/19 04:04:35;;;;;;;32.30;4.88;;;13.00;99.90;;;;;;5037417;28;20040;-73
2022/06/19 04:07:01;;;;;;;30.88;4.22;;;13.00;99.90;;;;;;5037323;28;20119;-73
2022/06/19 04:09:27;;;;;;;25.40;4.90;;;13.00;99.90;;;;;;5037531;28;20048;-73
2022/06/19 04:11:52;;;;;;;28.33;4.97;;;13.00;99.90;;;;;;5037183;28;20419;-73
2022/06/19 04:14:18;;;;;;;30.40;5.43;;;13.00;99.90;;;;;;5037035;28;20492;-73
2022/06/19 04:16:44;;;;;;;24.38;4.50;;;13.10;99.90;;;;;;5037089;28;20032;-73
2022/06/19 04:19:12;;;;;;;27.08;5.20;;;13.20;99.90;;;;;;5054755;28;20100;-73
2022/06/19 04:21:44;;;;;;;40.10;7.80;;;13.30;99.90;;;;;;5054693;28;20037;-73
2022/06/19 04:24:13;;;;;;;22.75;3.55;;;13.40;99.90;;;;;;5036791;28;20123;-74
2022/06/19 04:26:40;;;;;;;29.77;3.55;;;13.40;99.90;;;;;;5036058;28;20096;-73
2022/06/19 04:29:07;;;;;;;32.78;3.63;;;13.40;99.90;;;;;;5036476;28;20052;-73
2022/06/19 04:31:33;;;;;;;20.92;3.92;;;13.30;99.90;;;;;;5054450;28;20045;-73
2022/06/19 04:33:59;;;;;;;30.02;2.92;;;13.30;99.90;;;;;;5036457;28;20055;-73
2022/06/19 04:36:28;;;;;;;15.55;2.40;;;13.30;99.90;;;;;;5054523;28;20159;-73
2022/06/19 04:38:56;;;;;;;23.77;3.28;;;13.30;99.90;;;;;;5054459;28;20044;-73
2022/06/19 04:41:29;;;;;;;19.77;2.95;;;13.10;99.90;;;;;;5054223;28;20500;-73
2022/06/19 04:43:59;;;;;;;17.02;2.88;;;13.00;99.90;;;;;;5054147;28;20518;-73
2022/06/19 04:46:26;;;;;;;18.35;1.98;;;13.00;99.90;;;;;;5036268;28;20053;-73
2022/06/19 04:48:52;;;;;;;28.38;3.10;;;13.00;99.90;;;;;;5054330;28;20041;-73
2022/06/19 04:51:18;;;;;;;20.45;2.95;;;12.90;99.90;;;;;;5036116;28;20103;-73
2022/06/19 04:53:44;;;;;;;16.10;2.78;;;12.90;99.90;;;;;;5053825;28;20041;-73
2022/06/19 04:56:11;;;;;;;15.27;2.63;;;12.80;99.90;;;;;;5054128;28;20033;-73
2022/06/19 04:58:37;;;;;;;15.70;3.00;;;12.80;99.90;;;;;;5036138;28;20451;-73
2022/06/19 05:01:09;;;;;;;13.30;2.15;;;12.80;99.90;;;;;;5053974;28;20047;-73
2022/06/19 05:03:35;;;;;;;20.83;3.00;;;12.80;99.90;;;;;;5036072;28;20044;-73
2022/06/19 05:06:01;;;;;;;15.05;2.47;;;12.80;99.90;;;;;;5035864;28;20363;-73
2022/06/19 05:08:26;;;;;;;16.25;2.92;;;12.80;99.90;;;;;;5054041;28;20053;-73
2022/06/19 05:10:52;;;;;;;12.32;2.33;;;12.80;99.90;;;;;;5035921;28;20048;-74
2022/06/19 05:13:20;;;;;;;20.60;2.92;;;12.70;99.90;;;;;;5053956;28;20051;-74
2022/06/19 05:15:47;;;;;;;15.52;2.08;;;12.80;99.90;;;;;;5053912;28;20040;-73
2022/06/19 05:18:13;;;;;;;18.58;3.17;;;12.80;99.90;;;;;;5035967;28;20052;-73
2022/06/19 05:20:39;;;;;;;14.57;2.17;;;12.80;99.90;;;;;;5035744;28;20191;-73
2022/06/19 05:23:06;;;;;;;11.82;2.53;;;12.80;99.90;;;;;;5053851;28;20045;-73
2022/06/19 05:25:33;;;;;;;22.33;3.30;;;12.70;99.90;;;;;;5053420;28;20556;-73
2022/06/19 05:27:59;;;;;;;16.35;2.90;;;12.70;99.90;;;;;;5053678;28;20040;-73
2022/06/19 05:30:24;;;;;;;12.32;2.75;;;12.70;99.90;;;;;;5053047;28;20051;-73
2022/06/19 05:32:50;;;;;;;12.40;1.85;;;12.60;99.90;;;;;;5052904;28;20208;-74
2022/06/19 05:35:15;;;;;;;14.25;2.13;;;12.60;99.90;;;;;;5035886;28;20408;-73
2022/06/19 05:37:41;;;;;;;20.02;2.88;;;12.60;99.90;;;;;;5035486;28;20491;-73
2022/06/19 05:40:09;;;;;;;11.77;4.03;;;12.50;99.90;;;;;;5035665;28;20059;-73
2022/06/19 05:42:35;;;;;;;22.33;3.35;;;12.60;99.90;;;;;;5035735;28;20051;-73
2022/06/19 05:45:00;;;;;;;22.85;4.45;;;12.50;99.90;;;;;;5035371;28;20057;-73
2022/06/19 05:47:26;;;;;;;13.23;2.42;;;12.70;99.90;;;;;;5053390;28;20076;-73
2022/06/19 05:49:52;;;;;;;19.75;2.83;;;12.50;99.90;;;;;;5053482;28;20451;-74
2022/06/19 05:52:20;;;;;;;18.83;2.80;;;12.50;99.90;;;;;;5053539;28;20497;-74
2022/06/19 05:54:46;;;;;;;11.65;2.33;;;12.50;99.90;;;;;;5035387;28;20045;-74
2022/06/19 05:57:13;;;;;;;12.85;2.38;;;12.50;99.90;;;;;;5035583;28;20463;-74
2022/06/19 05:59:39;;;;;;;18.42;3.33;;;12.40;99.90;;;;;;5053417;28;20064;-74
2022/06/19 06:02:06;;;;;;;14.60;2.05;;;12.40;99.90;;;;;;5053332;28;20044;-74
2022/06/19 06:04:32;;;;;;;16.48;2.67;;;12.40;99.90;;;;;;5053558;28;20037;-74
2022/06/19 06:06:57;;;;;;;16.25;3.60;;;12.40;99.90;;;;;;5039239;28;20048;-74
2022/06/19 06:09:23;;;;;;;17.23;3.10;;;12.50;99.90;;;;;;5039283;28;20147;-74
2022/06/19 06:11:48;;;;;;;22.13;3.58;;;12.50;99.90;;;;;;5057300;28;20056;-74
2022/06/19 06:14:14;;;;;;;19.17;2.75;;;12.50;99.90;;;;;;5039119;28;20095;-74
2022/06/19 06:16:40;;;;;;;15.77;3.33;;;12.60;99.90;;;;;;5056844;28;20510;-74
2022/06/19 06:19:05;;;;;;;18.73;3.13;;;12.60;99.90;;;;;;5039145;28;20049;-74
2022/06/19 06:21:31;;;;;;;24.10;3.75;;;12.70;99.90;;;;;;5057169;28;20040;-74
2022/06/19 06:23:57;;;;;;;14.23;2.92;;;12.80;99.90;;;;;;5057222;28;20037;-74
2022/06/19 06:26:29;;;;;;;14.90;2.83;;;12.80;99.90;;;;;;5038863;28;20458;-74
2022/06/19 06:28:58;;;;;;;19.25;3.40;;;12.90;99.90;;;;;;5056962;28;20095;-74
2022/06/19 06:31:24;;;;;;;11.40;2.78;;;12.80;99.90;;;;;;5038744;28;20400;-74
2022/06/19 06:33:50;;;;;;;16.42;2.72;;;12.80;99.90;;;;;;5039148;28;20152;-74
2022/06/19 06:36:17;;;;;;;18.20;2.83;;;12.80;99.90;;;;;;5038930;28;20459;-74
2022/06/19 06:38:43;;;;;;;15.73;2.58;;;12.70;99.90;;;;;;5038809;28;20131;-74
2022/06/19 06:41:11;;;;;;;19.38;2.78;;;12.80;99.90;;;;;;5038739;28;20041;-74
2022/06/19 06:43:39;;;;;;;19.60;3.67;;;12.80;99.90;;;;;;5056343;28;20048;-74
2022/06/19 06:46:12;;;;;;;16.55;2.83;;;12.90;99.90;;;;;;5065637;28;20044;-74
2022/06/19 06:48:38;;;;;;;12.75;2.58;;;13.00;99.90;;;;;;5038833;28;20080;-73
2022/06/19 06:51:16;;;;;;;16.02;3.65;;;13.20;99.90;;;;;;5038529;28;20144;-74
2022/06/19 06:53:42;;;;;;;20.80;3.65;;;13.30;99.90;;;;;;5038388;28;20095;-73
2022/06/19 06:56:08;;;;;;;12.35;2.45;;;13.40;99.90;;;;;;5056138;28;20060;-73
2022/06/19 06:58:34;;;;;;;19.90;3.33;;;13.50;99.90;;;;;;5038341;28;20044;-73
2022/06/19 07:01:15;;;;;;;15.02;3.38;;;13.60;99.90;;;;;;5055996;28;20463;-73
2022/06/19 07:03:42;;;;;;;12.80;2.65;;;13.70;99.90;;;;;;5038366;28;20056;-74
2022/06/19 07:06:09;;;;;;;16.77;3.08;;;13.70;99.90;;;;;;5038275;28;20056;-74
2022/06/19 07:08:34;;;;;;;21.70;3.95;;;13.80;99.90;;;;;;5038254;28;20044;-73
2022/06/19 07:11:00;;;;;;;16.90;3.50;;;13.80;99.90;;;;;;5056053;28;20137;-73
2022/06/19 07:13:26;;;;;;;17.90;2.60;;;13.90;99.90;;;;;;5056076;28;20099;-73
2022/06/19 07:15:52;;;;;;;16.42;2.83;;;13.90;99.90;;;;;;5055658;28;20095;-73
2022/06/19 07:18:18;;;;;;;22.45;3.70;;;13.90;99.90;;;;;;5038040;28;20056;-74
2022/06/19 07:20:44;;;;;;;19.45;3.17;;;14.00;99.90;;;;;;5037730;28;20447;-74
2022/06/19 07:23:10;;;;;;;25.42;3.38;;;14.00;99.90;;;;;;5055783;28;20476;-73
2022/06/19 07:25:36;;;;;;;15.07;2.80;;;14.10;99.90;;;;;;5037927;28;20052;-74
2022/06/19 07:28:01;;;;;;;18.30;3.00;;;14.10;99.90;;;;;;5055405;28;20048;-74
2022/06/19 07:30:28;;;;;;;20.55;3.45;;;14.10;99.90;;;;;;5037643;28;20044;-74
2022/06/19 07:32:55;;;;;;;14.85;2.22;;;14.20;99.90;;;;;;5037786;28;20049;-74
2022/06/19 07:35:22;;;;;;;12.38;2.45;;;14.20;99.90;;;;;;5037567;28;20045;-73
2022/06/19 07:37:48;;;;;;;11.70;2.85;;;14.20;99.90;;;;;;5037460;28;20055;-74
2022/06/19 07:40:17;;;;;;;10.38;2.45;;;14.20;99.90;;;;;;5055482;28;20117;-74
2022/06/19 07:42:43;;;;;;;9.77;2.00;;;14.20;99.90;;;;;;5055037;28;20045;-74
2022/06/19 07:45:10;;;;;;;13.73;3.20;;;14.20;99.90;;;;;;5055193;28;20404;-74
2022/06/19 07:50:20;;;;;;;10.98;2.72;;;14.20;99.90;;;;;;5037606;28;20063;-73
2022/06/19 07:52:48;;;;;;;16.05;2.17;;;14.20;99.90;;;;;;5055177;28;20037;-74
2022/06/19 07:55:19;;;;;;;13.00;2.28;;;14.20;99.90;;;;;;5055288;28;20037;-74
2022/06/19 07:57:45;;;;;;;11.65;2.20;;;14.30;99.90;;;;;;5054871;28;20397;-74
2022/06/19 08:00:17;;;;;;;20.85;3.35;;;14.30;99.90;;;;;;5037343;28;20489;-74
2022/06/19 08:02:49;;;;;;;9.25;1.70;;;14.30;99.90;;;;;;5037306;28;20132;-73
2022/06/19 08:05:15;;;;;;;13.73;2.63;;;14.40;99.90;;;;;;5054711;28;20037;-73
2022/06/19 08:07:41;;;;;;;17.02;2.25;;;14.40;99.90;;;;;;5054914;28;20051;-74
2022/06/19 08:10:13;;;;;;;12.52;2.35;;;14.50;99.90;;;;;;5037229;28;20123;-74
2022/06/19 08:12:39;;;;;;;9.95;2.28;;;14.50;99.90;;;;;;5036899;28;20044;-74
2022/06/19 08:15:07;;;;;;;12.90;2.67;;;14.50;99.90;;;;;;5054653;28;20087;-75
2022/06/19 08:17:33;;;;;;;14.35;2.33;;;14.40;99.90;;;;;;5054616;28;20045;-74
2022/06/19 08:19:59;;;;;;;11.15;1.92;;;14.50;99.90;;;;;;5054316;28;20399;-74
2022/06/19 08:22:24;;;;;;;11.88;2.40;;;14.40;99.90;;;;;;5049594;28;20059;-74
2022/06/19 08:24:50;;;;;;;11.35;1.95;;;14.40;99.90;;;;;;5065723;28;20044;-74
2022/06/19 08:27:16;;;;;;;11.27;2.03;;;14.40;99.90;;;;;;5073946;28;20037;-74
2022/06/19 08:29:41;;;;;;;10.65;2.40;;;14.40;99.90;;;;;;5073062;28;20508;-74
2022/06/19 08:32:07;;;;;;;11.45;2.25;;;14.40;99.90;;;;;;5074565;28;20033;-74
2022/06/19 08:34:33;;;;;;;8.13;1.70;;;14.40;99.90;;;;;;5074177;28;20051;-74
2022/06/19 08:37:01;;;;;;;12.73;2.38;;;14.40;99.90;;;;;;5072959;28;20052;-74
2022/06/19 08:39:28;;;;;;;13.93;2.42;;;14.40;99.90;;;;;;5074151;28;20052;-75
2022/06/19 08:42:00;;;;;;;15.57;2.10;;;14.40;99.90;;;;;;5073167;28;20047;-74
2022/06/19 08:45:03;;;;;;;10.07;2.08;;;14.40;99.90;;;;;;5073872;28;20060;-75
2022/06/19 08:48:07;;;;;;;8.27;1.70;;;14.40;99.90;;;;;;5074122;28;20080;-75
2022/06/19 08:50:44;;;;;;;12.10;2.72;;;14.40;99.90;;;;;;5044195;28;20123;-75
2022/06/19 08:53:41;;;;;;;10.98;1.88;;;14.50;99.90;;;;;;5073458;28;20059;-75
2022/06/19 08:56:32;;;;;;;8.75;1.77;;;14.60;99.90;;;;;;5035999;28;20080;-74
2022/06/19 08:59:20;;;;;;;13.27;2.65;;;14.60;99.90;;;;;;5053205;28;20133;-75
2022/06/19 09:02:44;;;;;;;13.15;1.92;;;14.80;99.90;;;;;;5039198;28;20051;-75
2022/06/19 09:06:05;;;;;;;13.93;2.00;;;14.90;99.90;;;;;;5004502;28;20061;-74
2022/06/19 09:08:43;;;;;;;9.23;1.98;;;14.90;99.90;;;;;;5049065;28;20443;-74
2022/06/19 09:11:29;;;;;;;5.88;1.60;;;15.00;99.90;;;;;;5052429;28;20053;-74
2022/06/19 09:14:06;;;;;;;10.65;2.60;;;15.20;99.90;;;;;;5053522;28;20051;-74
2022/06/19 09:16:56;;;;;;;10.60;2.20;;;15.30;99.90;;;;;;5053731;28;20041;-76
2022/06/19 09:19:51;;;;;;;6.25;2.10;;;15.40;99.90;;;;;;5052881;28;20045;-74
2022/06/19 09:22:34;;;;;;;8.93;2.00;;;15.50;99.90;;;;;;5053325;28;20130;-75
2022/06/19 09:25:20;;;;;;;8.57;2.30;;;15.60;99.90;;;;;;5053736;28;20131;-75
2022/06/19 09:28:25;;;;;;;17.27;2.60;;;15.60;99.90;;;;;;5035528;28;20401;-74
2022/06/19 09:31:00;;;;;;;11.18;2.25;;;15.60;99.90;;;;;;5052284;28;20059;-75
2022/06/19 09:33:35;;;;;;;5.38;2.00;;;15.70;99.90;;;;;;5053321;28;20128;-75
2022/06/19 09:36:10;;;;;;;13.32;2.83;;;15.70;99.90;;;;;;5053552;28;20045;-74
2022/06/19 09:38:46;;;;;;;11.02;2.80;;;15.80;99.90;;;;;;5053453;28;20127;-74
2022/06/19 09:41:20;;;;;;;10.65;2.70;;;15.90;99.90;;;;;;5052582;28;20061;-74
2022/06/19 09:43:56;;;;;;;9.85;2.63;;;15.70;99.90;;;;;;5052945;28;20075;-74
2022/06/19 09:46:29;;;;;;;18.02;2.00;;;15.70;99.90;;;;;;5053190;28;20045;-75
2022/06/19 09:49:08;;;;;;;13.30;3.85;;;15.70;99.90;;;;;;5035268;28;20045;-75
2022/06/19 09:52:05;;;;;;;13.55;2.70;;;15.60;99.90;;;;;;5035622;28;20041;-75
2022/06/19 09:55:07;;;;;;;12.88;2.97;;;15.60;99.90;;;;;;5053396;28;20052;-75
2022/06/19 09:57:49;;;;;;;9.90;2.00;;;15.70;99.90;;;;;;5035474;28;20094;-75
2022/06/19 10:00:23;;;;;;;15.83;2.77;;;15.70;99.90;;;;;;5053225;28;20413;-75
2022/06/19 10:02:55;;;;;;;9.13;2.58;;;15.80;99.90;;;;;;5053436;28;20357;-75
2022/06/19 10:05:36;;;;;;;11.25;2.63;;;16.00;99.90;;;;;;5053439;28;20041;-75
2022/06/19 10:08:10;;;;;;;10.57;2.55;;;16.10;99.90;;;;;;5035107;28;20049;-74
2022/06/19 10:10:56;;;;;;;10.73;2.78;;;16.30;99.90;;;;;;5053425;28;20091;-74
2022/06/19 10:13:34;;;;;;;18.30;3.38;;;16.50;99.90;;;;;;5053265;28;20126;-75
2022/06/19 10:16:03;;;;;;;13.20;2.30;;;16.40;99.90;;;;;;5052158;28;20496;-75
2022/06/19 10:18:37;;;;;;;12.30;2.83;;;16.50;99.90;;;;;;5053031;28;20037;-75
2022/06/19 10:24:35;;;;;;;16.73;2.80;;;16.60;99.90;;;;;;5035420;28;20060;-75
2022/06/19 10:27:19;;;;;;;13.27;2.80;;;16.50;99.90;;;;;;5051884;28;20057;-75
2022/06/19 10:30:06;;;;;;;17.23;3.38;;;16.40;99.90;;;;;;5051693;28;20519;-75
2022/06/19 10:32:46;;;;;;;12.30;2.80;;;16.30;99.90;;;;;;5051635;28;20499;-75
2022/06/19 10:35:30;;;;;;;21.02;3.20;;;16.40;99.90;;;;;;5035056;28;20492;-75
2022/06/19 10:38:25;;;;;;;12.18;2.60;;;16.40;99.90;;;;;;5053006;28;20071;-75
2022/06/19 10:44:44;;;;;;;11.35;3.08;;;16.50;99.90;;;;;;5052687;28;20132;-75
2022/06/19 10:47:35;;;;;;;13.95;4.13;;;16.70;99.90;;;;;;5051551;28;20128;-75
2022/06/19 10:50:23;;;;;;;11.43;3.00;;;16.80;99.90;;;;;;5034860;28;20049;-75
2022/06/19 10:53:10;;;;;;;16.77;2.67;;;16.90;99.90;;;;;;5055311;28;20175;-75
2022/06/19 10:55:42;;;;;;;11.57;2.63;;;16.90;99.90;;;;;;5056508;28;20171;-75
2022/06/19 10:58:30;;;;;;;10.63;2.92;;;16.70;99.90;;;;;;5038433;28;20047;-75
2022/06/19 11:00:59;;;;;;;14.88;2.72;;;16.80;99.90;;;;;;5056263;28;20552;-75
2022/06/19 11:06:31;;;;;;;14.13;2.55;;;17.00;99.90;;;;;;5056248;28;20071;-75
2022/06/19 11:09:04;;;;;;;10.00;2.50;;;17.00;99.90;;;;;;5054874;28;20140;-75
2022/06/19 11:11:32;;;;;;;10.75;2.67;;;17.00;99.90;;;;;;5056038;28;20049;-75
2022/06/19 11:14:07;;;;;;;15.65;2.60;;;16.90;99.90;;;;;;5055965;28;20045;-75
2022/06/19 11:16:41;;;;;;;13.70;2.45;;;16.90;99.90;;;;;;5054866;28;20127;-75
2022/06/19 11:19:07;;;;;;;14.80;2.58;;;16.90;99.90;;;;;;5055893;28;20560;-75
2022/06/19 11:21:34;;;;;;;10.85;2.38;;;16.80;99.90;;;;;;5055998;28;20128;-75
2022/06/19 11:24:04;;;;;;;11.80;2.67;;;16.90;99.90;;;;;;5037889;28;20072;-75
2022/06/19 11:26:38;;;;;;;11.93;2.50;;;16.80;99.90;;;;;;5055718;28;20073;-75
2022/06/19 11:29:12;;;;;;;13.35;3.05;;;16.80;99.90;;;;;;5055663;28;20124;-75
2022/06/19 11:31:59;;;;;;;9.48;1.85;;;16.90;99.90;;;;;;5055868;28;20036;-75
2022/06/19 11:34:44;;;;;;;13.40;2.45;;;16.80;99.90;;;;;;5037965;28;20542;-75
2022/06/19 11:37:10;;;;;;;11.65;2.20;;;16.80;99.90;;;;;;5055530;28;20045;-75
2022/06/19 11:39:40;;;;;;;16.95;2.53;;;16.90;99.90;;;;;;5055399;28;20076;-75
2022/06/19 11:42:27;;;;;;;13.15;2.00;;;16.90;99.90;;;;;;5056240;28;20128;-75
2022/06/19 11:44:56;;;;;;;14.60;2.22;;;16.90;99.90;;;;;;5037590;28;20496;-75
2022/06/19 11:47:35;;;;;;;12.20;2.60;;;16.90;99.90;;;;;;5037505;28;20045;-75
2022/06/19 11:50:13;;;;;;;16.73;2.00;;;16.80;99.90;;;;;;5055400;28;20096;-75
2022/06/19 11:52:45;;;;;;;16.27;2.50;;;16.80;99.90;;;;;;5055510;28;20048;-75
2022/06/19 11:55:25;;;;;;;11.05;2.00;;;16.90;99.90;;;;;;5055543;28;20045;-75
2022/06/19 11:57:53;;;;;;;10.88;2.60;;;16.80;99.90;;;;;;5055543;28;20103;-75
2022/06/19 12:00:26;;;;;;;10.35;1.85;;;16.70;99.90;;;;;;5055306;28;20081;-75
2022/06/19 12:02:53;;;;;;;;;;;16.90;99.90;;;;;;5054886;28;20056;-75
2022/06/19 12:05:32;;;;;;;12.98;2.42;;;16.80;99.90;;;;;;5055325;28;19927;-75
2022/06/19 12:08:18;;;;;;;13.73;2.70;;;17.00;99.90;;;;;;5037081;28;20048;-75
2022/06/19 12:10:51;;;;;;;12.00;1.95;;;17.20;99.90;;;;;;5055064;28;20489;-75
2022/06/19 12:13:22;;;;;;;9.75;1.92;;;17.60;99.90;;;;;;5055121;28;20041;-75
2022/06/19 12:15:59;;;;;;;12.77;2.28;;;17.60;99.90;;;;;;5055103;28;20107;-75
2022/06/19 12:18:26;;;;;;;15.00;2.10;;;17.70;99.90;;;;;;5055065;28;20045;-75
2022/06/19 12:20:58;;;;;;;11.30;2.20;;;17.90;99.90;;;;;;5037073;28;20052;-75
2022/06/19 12:23:27;;;;;;;17.77;2.67;;;18.20;99.90;;;;;;5054536;28;20435;-75
2022/06/19 12:25:58;;;;;;;12.73;2.50;;;18.20;99.90;;;;;;5036664;28;20088;-75
2022/06/19 12:28:59;;;;;;;8.20;1.67;;;18.30;99.90;;;;;;5036630;28;20128;-75
2022/06/19 12:31:34;;;;;;;12.25;1.90;;;18.30;99.90;;;;;;5036923;28;20045;-75
2022/06/19 12:34:26;;;;;;;10.20;2.05;;;18.20;99.90;;;;;;5036890;28;20037;-75
2022/06/19 12:36:53;;;;;;;11.23;2.53;;;18.00;99.90;;;;;;5054661;28;20116;-75
2022/06/19 12:39:23;;;;;;;14.43;2.25;;;18.00;99.90;;;;;;5054571;28;20077;-75
2022/06/19 12:42:10;;;;;;;15.73;2.65;;;18.00;99.90;;;;;;5036405;28;20049;-75
2022/06/19 12:44:56;;;;;;;10.02;2.15;;;18.00;99.90;;;;;;5054116;28;20110;-75
2022/06/19 12:47:56;;;;;;;13.43;2.00;;;18.00;99.90;;;;;;5053022;28;20060;-75
2022/06/19 12:50:52;;;;;;;9.73;2.00;;;18.00;99.90;;;;;;5036280;28;20049;-75
2022/06/19 12:53:31;;;;;;;14.82;2.70;;;18.10;99.90;;;;;;5036340;28;20048;-75
2022/06/19 12:56:11;;;;;;;10.05;1.50;;;18.30;99.90;;;;;;5053106;28;20048;-75
2022/06/19 12:59:07;;;;;;;10.98;1.80;;;18.50;99.90;;;;;;5053146;28;20098;-75
2022/06/19 13:01:51;;;;;;;14.02;1.92;;;18.60;99.90;;;;;;5052966;28;20401;-75
2022/06/19 13:04:31;;;;;;;13.35;2.10;;;18.60;99.90;;;;;;5052992;28;20415;-75
2022/06/19 13:06:56;;;;;;;12.95;1.80;;;18.60;99.90;;;;;;5054145;28;20041;-75
2022/06/19 13:09:27;;;;;;;16.63;2.22;;;18.80;99.90;;;;;;5052656;28;20400;-76
2022/06/19 13:12:21;;;;;;;14.35;2.25;;;18.80;99.90;;;;;;5053943;28;20041;-75
2022/06/19 13:14:53;;;;;;;12.70;2.05;;;18.90;99.90;;;;;;5044168;28;20052;-75